KDMA

Davis Monthan AFB Airport

Tucson, Arizona, USA
METAR KDMA 172158Z AUTO 31010KT 10SM FEW070 37/17 A3004 RMK AO2 SLP124 T03730173 $
Observed Flight Rules
Aug-17 @ 21:58 UTC (38 minutes ago) Visual Flight Rules
Wind Visibility Clouds
310° at 10 knots 10 miles
  • Few at 7,000' AGL
Temperatures Readings
Current 37°C / 99°F
Dewpoint 17°C / 63°F
Humidity 31%
Altimeter 30.04" Hg
Pressure 1012.4 hPa
Elevation 824
METAR KDMA 172158Z AUTO 31010KT 10SM FEW070 37/17 A3004 RMK AO2 SLP124 T03730173 $
Observed Flight Rules
Aug-17 @ 21:58 UTC
(38 minutes ago)
VFR
Wind Visibility
310° at 10 knots 10 miles
Clouds
  • Few at 7,000' AGL
Temperature Dewpoint
37°C / 99°F 17°C / 63°F
Humidity Altimeter Pressure
31% 30.04" Hg 1012.4 hPa